Hlavní strana
METAR-TAF:

METAR-TAF

Letiště :

Sundsvall-Härnösand, Švédsko

zeměpisná šířka: 62-32N, zeměpisná délka: 017-27E, výška: 4 m

Aktuální stav počasí

Zpráva byla vytvořena před 21 minutami, v 03:50 UTC
Západoseverozápadní vítr 3 kt
Teplota 0°C
Vlhkost vzduchu 100%
Tlak 1023 hPa
Viditelnost 10 km a více
slabé sněžení

METAR: ESNN 180350Z AUTO 30003KT 9999 -SN OVC009/// 00/M00 Q1023 REDZ

Čas: 05:11 (04:11 UTC)

Předpověď počasí

Zpráva byla vytvořena před 7 hodinami a 41 minutami, v 20:30 UTC
Předpověď platná od 17 v 21 UTC do 17 v 23 UTC
Západoseverozápadní vítr 5 kt
Viditelnost 10 km a více
Polojasno ve výšce 1200 ft
Zataženo ve výšce 2000 ft
Pravděpodobnost 40%
od 17 v 21 UTC do 17 v 23 UTC
Oblačno až skoro zataženo ve výšce 1200 ft

TAF: ESNN 172030Z 1721/1723 30005KT 9999 SCT012 OVC020 PROB40 1721/1723 BKN012

Stav a předpovědi počasí z více než 4 000 letišť (zprávy METAR a TAF).

Červené a žluté tečky na mapě představují dostupné meteorologické stanice.

Když kurzor umístíte na tečku, zobrazí se název stanice.

Pak kliknutím zobrazíte stav a předpověď počasí.

Chcete-li změnit mapu, kliknutím na zelené tlačítko se znaménkem +mapu přiblížíte, kliknutím na zelené tlačítko se znaménkem – mapu oddálíte a kliknutím na zelené šipky přejdete na sousední mapy.


METAR-TAF: